Time;durP1;ratioP1;P1;durP2;ratioP2;P2;SDS_P1;SDS_P2;PMS_P1;PMS_P2;Temp;Humidity;BMP_temperature;BMP_pressure;BME280_temperature;BME280_humidity;BME280_pressure;Samples;Min_cycle;Max_cycle;Signal;HPM_P1;HPM_P2
2022/10/23 00:00:39;;;;;;;1.70;0.50;;;9.90;99.90;;;;;;5071579;28;20465;-52
2022/10/23 00:03:06;;;;;;;1.30;0.70;;;9.90;99.90;;;;;;5071096;28;21033;-53
2022/10/23 00:05:34;;;;;;;1.17;0.37;;;9.90;99.90;;;;;;5071474;28;20451;-52
2022/10/23 00:08:01;;;;;;;0.90;0.47;;;10.30;99.90;;;;;;5070985;28;20465;-53
2022/10/23 00:10:28;;;;;;;1.00;0.50;;;10.40;99.90;;;;;;5071169;28;20543;-52
2022/10/23 00:12:55;;;;;;;2.80;0.80;;;10.40;99.90;;;;;;5071531;28;20538;-53
2022/10/23 00:15:22;;;;;;;1.10;0.70;;;10.50;99.90;;;;;;5071243;28;20479;-52
2022/10/23 00:17:50;;;;;;;2.67;0.60;;;9.50;99.90;;;;;;5071236;28;20882;-52
2022/10/23 00:20:17;;;;;;;2.03;0.70;;;9.10;99.90;;;;;;5071453;28;20552;-52
2022/10/23 00:22:46;;;;;;;1.27;0.70;;;9.40;99.90;;;;;;5070908;28;20531;-52
2022/10/23 00:25:13;;;;;;;1.10;0.50;;;9.70;99.90;;;;;;5071215;28;20468;-52
2022/10/23 00:27:39;;;;;;;1.77;0.50;;;9.90;99.90;;;;;;5071182;28;20878;-53
2022/10/23 00:30:07;;;;;;;1.27;0.40;;;10.00;99.90;;;;;;5070657;28;21003;-52
2022/10/23 00:32:34;;;;;;;1.30;0.50;;;10.10;99.90;;;;;;5071067;28;20526;-53
2022/10/23 00:35:01;;;;;;;0.97;0.53;;;10.20;99.90;;;;;;5070827;28;20449;-52
2022/10/23 00:37:28;;;;;;;1.23;0.70;;;10.00;99.90;;;;;;5070887;28;20444;-53
2022/10/23 00:39:56;;;;;;;0.90;0.40;;;10.00;99.90;;;;;;5071390;28;20496;-53
2022/10/23 00:42:23;;;;;;;1.10;0.43;;;10.00;99.90;;;;;;5070938;28;20528;-53
2022/10/23 00:45:17;;;;;;;1.97;0.50;;;9.60;99.90;;;;;;5070900;28;20443;-52
2022/10/23 00:47:44;;;;;;;1.10;0.60;;;9.40;99.90;;;;;;5070650;28;20997;-53
2022/10/23 00:50:11;;;;;;;1.73;0.70;;;9.70;99.90;;;;;;5070445;28;21032;-52
2022/10/23 00:52:42;;;;;;;0.90;0.40;;;9.40;99.90;;;;;;5071209;28;20451;-52
2022/10/23 00:55:10;;;;;;;1.63;0.57;;;9.30;99.90;;;;;;5070691;28;20470;-52
2022/10/23 00:57:40;;;;;;;1.37;0.80;;;9.60;99.90;;;;;;5070735;28;20528;-53
2022/10/23 01:00:09;;;;;;;2.40;0.60;;;9.90;99.90;;;;;;5070838;28;20539;-52
2022/10/23 01:02:35;;;;;;;1.00;0.60;;;10.00;99.90;;;;;;5070647;28;20783;-53
2022/10/23 01:05:02;;;;;;;1.20;0.70;;;9.90;99.90;;;;;;5073714;28;20467;-52
2022/10/23 01:07:35;;;;;;;1.30;0.67;;;9.80;99.90;;;;;;5074489;28;20472;-52
2022/10/23 01:10:11;;;;;;;1.43;0.50;;;10.00;99.90;;;;;;5074637;28;20539;-52
2022/10/23 01:12:46;;;;;;;1.27;0.70;;;9.70;99.90;;;;;;5074098;28;20445;-53
2022/10/23 01:15:18;;;;;;;2.07;0.63;;;9.70;99.90;;;;;;5074198;28;20813;-52
2022/10/23 01:17:51;;;;;;;1.33;0.40;;;9.60;99.90;;;;;;5074073;28;20444;-52
2022/10/23 01:20:38;;;;;;;0.90;0.50;;;9.70;99.90;;;;;;5074379;28;20500;-53
2022/10/23 01:23:38;;;;;;;2.80;0.47;;;9.70;99.90;;;;;;5073900;28;20451;-52
2022/10/23 01:26:27;;;;;;;1.60;0.70;;;9.80;99.90;;;;;;5055536;28;20543;-52
2022/10/23 01:29:00;;;;;;;1.83;0.67;;;9.80;99.90;;;;;;5074158;28;20463;-52
2022/10/23 01:31:34;;;;;;;1.20;0.43;;;9.70;99.90;;;;;;5073992;28;20535;-52
2022/10/23 01:34:10;;;;;;;1.07;0.50;;;9.30;99.90;;;;;;5073829;28;20980;-53
2022/10/23 01:36:41;;;;;;;1.60;0.90;;;9.00;99.90;;;;;;5073960;28;20448;-52
2022/10/23 01:39:11;;;;;;;1.00;0.70;;;9.40;99.90;;;;;;5073873;28;20469;-53
2022/10/23 01:41:44;;;;;;;1.57;0.40;;;9.60;99.90;;;;;;5073635;28;20539;-52
2022/10/23 01:44:16;;;;;;;1.43;0.60;;;9.50;99.90;;;;;;5073906;28;20529;-52
2022/10/23 01:46:46;;;;;;;0.90;0.43;;;9.60;99.90;;;;;;5073863;28;20837;-52
2022/10/23 01:49:14;;;;;;;0.90;0.40;;;9.50;99.90;;;;;;5136672;22;20468;-48
2022/10/23 01:51:46;;;;;;;1.37;0.40;;;9.50;99.90;;;;;;5093917;28;20543;-48
2022/10/23 01:54:16;;;;;;;1.13;0.60;;;9.50;99.90;;;;;;5093113;28;20475;-48
2022/10/23 01:56:46;;;;;;;0.90;0.57;;;9.40;99.90;;;;;;5093867;28;20443;-50
2022/10/23 01:59:19;;;;;;;1.37;0.70;;;9.10;99.90;;;;;;5093673;28;20538;-47
2022/10/23 02:01:49;;;;;;;0.90;0.50;;;9.30;99.90;;;;;;5093551;28;20538;-47
2022/10/23 02:04:21;;;;;;;1.20;0.77;;;9.40;99.90;;;;;;5093688;28;20519;-48
2022/10/23 02:06:48;;;;;;;1.87;1.40;;;9.60;99.90;;;;;;5093993;28;20436;-47
2022/10/23 02:09:15;;;;;;;3.47;1.20;;;9.70;99.90;;;;;;5093224;28;20466;-48
2022/10/23 02:11:50;;;;;;;1.27;1.13;;;9.80;99.90;;;;;;5093404;28;20446;-48
2022/10/23 02:14:24;;;;;;;1.07;0.50;;;9.80;99.90;;;;;;5093468;28;20479;-47
2022/10/23 02:16:53;;;;;;;1.40;0.80;;;10.00;99.90;;;;;;5092489;28;20435;-47
2022/10/23 02:19:29;;;;;;;1.40;0.90;;;10.10;99.90;;;;;;5093475;28;20467;-47
2022/10/23 02:22:04;;;;;;;3.30;2.33;;;9.80;99.90;;;;;;5093060;28;20527;-48
2022/10/23 02:24:34;;;;;;;4.10;3.07;;;9.90;99.90;;;;;;5092907;28;20530;-48
2022/10/23 02:27:03;;;;;;;4.30;3.23;;;9.70;99.90;;;;;;5093144;28;20440;-49
2022/10/23 02:29:35;;;;;;;9.33;2.77;;;9.30;99.90;;;;;;5092895;28;20462;-47
2022/10/23 02:32:02;;;;;;;1.00;0.50;;;9.40;99.90;;;;;;5093340;28;20439;-47
2022/10/23 02:34:29;;;;;;;1.17;0.70;;;9.10;99.90;;;;;;5092709;28;20476;-50
2022/10/23 02:36:56;;;;;;;4.13;0.60;;;8.70;99.90;;;;;;5093285;28;20439;-47
2022/10/23 02:39:26;;;;;;;2.23;0.50;;;9.10;99.90;;;;;;5092701;28;20473;-49
2022/10/23 02:41:59;;;;;;;1.10;0.60;;;9.50;99.90;;;;;;5092895;28;20446;-47
2022/10/23 02:44:38;;;;;;;0.93;0.50;;;9.60;99.90;;;;;;5093138;28;20458;-48
2022/10/23 02:47:14;;;;;;;1.23;0.73;;;9.70;99.90;;;;;;5093041;28;20440;-48
2022/10/23 02:49:49;;;;;;;3.60;2.50;;;9.80;99.90;;;;;;5092553;28;20558;-48
2022/10/23 02:52:21;;;;;;;7.00;4.13;;;9.70;99.90;;;;;;5092676;28;20901;-48
2022/10/23 02:55:02;;;;;;;2.00;1.03;;;9.10;99.90;;;;;;5092179;28;20476;-50
2022/10/23 02:57:33;;;;;;;2.13;1.93;;;8.80;99.90;;;;;;5092558;28;20492;-48
2022/10/23 03:00:06;;;;;;;1.77;1.10;;;9.20;99.90;;;;;;5092420;28;20464;-47
2022/10/23 03:02:38;;;;;;;4.23;2.20;;;9.30;99.90;;;;;;5093106;28;20863;-48
2022/10/23 03:05:10;;;;;;;2.70;0.93;;;8.90;99.90;;;;;;5092457;28;20442;-48
2022/10/23 03:07:38;;;;;;;1.30;0.80;;;8.80;99.90;;;;;;5092331;28;20439;-48
2022/10/23 03:10:06;;;;;;;2.83;1.73;;;9.20;99.90;;;;;;5092325;28;20547;-48
2022/10/23 03:12:33;;;;;;;4.40;2.13;;;9.50;99.90;;;;;;5092237;28;20523;-47
2022/10/23 03:15:02;;;;;;;4.07;2.20;;;9.40;99.90;;;;;;5092051;28;20490;-48
2022/10/23 03:17:28;;;;;;;2.33;1.90;;;9.50;99.90;;;;;;5092798;28;20531;-47
2022/10/23 03:19:55;;;;;;;2.50;1.63;;;9.60;99.90;;;;;;5092017;28;20562;-47
2022/10/23 03:22:22;;;;;;;2.17;1.30;;;9.50;99.90;;;;;;5092002;28;20446;-49
2022/10/23 03:24:49;;;;;;;1.83;1.20;;;9.60;99.90;;;;;;5092168;28;20528;-48
2022/10/23 03:27:16;;;;;;;2.30;1.40;;;9.60;99.90;;;;;;5091882;28;20541;-48
2022/10/23 03:29:43;;;;;;;4.00;3.17;;;9.40;99.90;;;;;;5092038;28;20543;-48
2022/10/23 03:32:11;;;;;;;2.10;1.60;;;9.20;99.90;;;;;;5092153;28;20454;-48
2022/10/23 03:34:38;;;;;;;1.90;1.20;;;8.90;99.90;;;;;;5091598;28;20562;-49
2022/10/23 03:37:05;;;;;;;3.07;1.40;;;8.70;99.90;;;;;;5091962;28;20448;-48
2022/10/23 03:39:31;;;;;;;1.67;1.17;;;9.00;99.90;;;;;;5091554;28;20468;-49
2022/10/23 03:41:58;;;;;;;3.53;2.07;;;9.30;99.90;;;;;;5091898;28;20531;-49
2022/10/23 03:44:25;;;;;;;3.13;1.50;;;9.00;99.90;;;;;;5091977;28;20480;-48
2022/10/23 03:46:52;;;;;;;1.20;0.97;;;8.60;99.90;;;;;;5091827;28;20475;-48
2022/10/23 03:49:20;;;;;;;3.33;0.83;;;8.70;99.90;;;;;;5091794;28;20497;-48
2022/10/23 03:51:50;;;;;;;2.47;1.20;;;9.00;99.90;;;;;;5091765;28;20871;-48
2022/10/23 03:54:19;;;;;;;1.87;1.00;;;9.10;99.90;;;;;;5091512;28;20468;-48
2022/10/23 03:56:46;;;;;;;0.97;0.60;;;9.00;99.90;;;;;;5091727;28;20470;-48
2022/10/23 03:59:13;;;;;;;1.40;1.00;;;9.00;99.90;;;;;;5091511;28;21043;-48
2022/10/23 04:01:40;;;;;;;1.23;0.73;;;9.10;99.90;;;;;;5091578;28;20534;-48
2022/10/23 04:04:06;;;;;;;2.23;0.90;;;8.80;99.90;;;;;;5091326;28;20920;-48
2022/10/23 04:06:35;;;;;;;1.40;1.00;;;8.60;99.90;;;;;;5091361;28;20506;-48
2022/10/23 04:09:02;;;;;;;1.43;0.90;;;8.90;99.90;;;;;;5091018;28;20448;-47
2022/10/23 04:11:29;;;;;;;4.33;0.80;;;9.00;99.90;;;;;;5091209;28;20543;-48
2022/10/23 04:13:56;;;;;;;1.00;0.50;;;8.60;99.90;;;;;;5091170;28;20476;-48
2022/10/23 04:16:23;;;;;;;1.10;0.60;;;8.50;99.90;;;;;;5091420;28;20440;-48
2022/10/23 04:18:50;;;;;;;1.40;0.80;;;8.80;99.90;;;;;;5091435;28;20531;-50
2022/10/23 04:21:17;;;;;;;1.60;1.20;;;9.10;99.90;;;;;;5091348;28;20543;-48
2022/10/23 04:23:45;;;;;;;6.27;4.20;;;9.10;99.90;;;;;;5090512;28;20451;-48
2022/10/23 04:26:12;;;;;;;8.70;7.87;;;8.90;99.90;;;;;;5091005;28;20527;-49
2022/10/23 04:28:39;;;;;;;7.90;7.20;;;8.60;99.90;;;;;;5091519;28;20531;-49
2022/10/23 04:31:06;;;;;;;3.40;3.10;;;9.00;99.90;;;;;;5090774;28;20547;-49
2022/10/23 04:33:33;;;;;;;2.33;2.10;;;9.20;99.90;;;;;;5091302;28;20526;-48
2022/10/23 04:36:00;;;;;;;4.50;3.57;;;9.40;99.90;;;;;;5091161;28;20598;-47
2022/10/23 04:38:27;;;;;;;6.40;4.70;;;9.40;99.90;;;;;;5091894;28;20446;-50
2022/10/23 04:40:55;;;;;;;3.97;3.57;;;9.50;99.90;;;;;;5095301;28;20543;-48
2022/10/23 04:43:22;;;;;;;4.40;1.77;;;9.20;99.90;;;;;;5095306;28;20526;-48
2022/10/23 04:45:49;;;;;;;4.23;1.67;;;8.50;99.90;;;;;;5095006;28;20533;-48
2022/10/23 04:48:16;;;;;;;3.30;1.70;;;8.90;99.90;;;;;;5095349;28;20435;-48
2022/10/23 04:50:43;;;;;;;3.47;1.40;;;9.00;99.90;;;;;;5094962;28;20471;-48
2022/10/23 04:53:09;;;;;;;2.10;1.43;;;8.50;99.90;;;;;;5094681;28;20447;-49
2022/10/23 04:55:36;;;;;;;2.67;1.80;;;8.70;99.90;;;;;;5095211;28;20478;-49
2022/10/23 04:58:04;;;;;;;3.63;2.17;;;8.90;99.90;;;;;;5094849;28;20439;-48
2022/10/23 05:00:31;;;;;;;3.37;2.80;;;9.00;99.90;;;;;;5094783;28;20559;-48
2022/10/23 05:02:58;;;;;;;3.10;2.63;;;8.40;99.90;;;;;;5094844;28;20835;-51
2022/10/23 05:05:25;;;;;;;4.90;2.30;;;8.80;99.90;;;;;;5094693;28;20814;-49
2022/10/23 05:07:52;;;;;;;21.60;15.80;;;8.90;99.90;;;;;;5094444;28;20804;-49
2022/10/23 05:10:19;;;;;;;102.47;60.57;;;8.70;99.90;;;;;;5094429;28;20470;-50
2022/10/23 05:12:46;;;;;;;13.73;10.13;;;9.00;99.90;;;;;;5094711;28;20445;-49
2022/10/23 05:15:14;;;;;;;13.07;8.30;;;9.10;99.90;;;;;;5094421;28;20514;-49
2022/10/23 05:17:44;;;;;;;2.03;1.67;;;9.40;99.90;;;;;;5094231;28;21003;-49
2022/10/23 05:20:22;;;;;;;3.77;3.40;;;8.40;99.90;;;;;;5094858;28;20463;-48
2022/10/23 05:22:51;;;;;;;2.27;2.07;;;8.60;99.90;;;;;;5094685;28;20530;-48
2022/10/23 05:25:18;;;;;;;2.90;2.53;;;9.10;99.90;;;;;;5094791;28;20954;-49
2022/10/23 05:27:45;;;;;;;5.70;5.10;;;9.20;99.90;;;;;;5094377;28;20436;-46
2022/10/23 05:30:14;;;;;;;6.80;6.20;;;9.10;99.90;;;;;;5094007;28;20550;-48
2022/10/23 05:32:41;;;;;;;3.57;2.63;;;9.20;99.90;;;;;;5094052;28;20446;-49
2022/10/23 05:35:11;;;;;;;2.30;1.50;;;8.70;99.90;;;;;;5093940;28;20938;-48
2022/10/23 05:37:39;;;;;;;3.07;2.40;;;8.70;99.90;;;;;;5094434;28;20531;-48
2022/10/23 05:40:07;;;;;;;3.00;2.03;;;9.20;99.90;;;;;;5094190;28;20499;-47
2022/10/23 05:42:34;;;;;;;4.13;3.10;;;9.20;99.90;;;;;;5094194;28;20440;-50
2022/10/23 05:45:01;;;;;;;3.47;2.37;;;8.70;99.90;;;;;;5093676;28;20442;-52
2022/10/23 05:47:30;;;;;;;3.03;2.47;;;8.10;99.90;;;;;;5093992;28;20983;-48
2022/10/23 05:49:57;;;;;;;3.70;2.10;;;8.50;99.90;;;;;;5092471;28;20479;-47
2022/10/23 05:52:24;;;;;;;2.40;1.43;;;8.90;99.90;;;;;;5093888;28;20535;-48
2022/10/23 05:54:51;;;;;;;2.87;1.80;;;8.30;99.90;;;;;;5093488;28;20562;-48
2022/10/23 05:57:18;;;;;;;3.27;1.87;;;7.90;99.90;;;;;;5093724;28;20440;-50
2022/10/23 05:59:45;;;;;;;2.43;2.10;;;8.00;99.90;;;;;;5094410;28;20543;-48
2022/10/23 06:02:12;;;;;;;1.70;1.07;;;8.00;99.90;;;;;;5094202;28;20928;-51
2022/10/23 06:04:40;;;;;;;5.33;1.30;;;7.90;99.90;;;;;;5093379;28;20431;-48
2022/10/23 06:07:07;;;;;;;1.70;1.40;;;8.00;99.90;;;;;;5093594;28;20436;-48
2022/10/23 06:09:34;;;;;;;2.60;2.30;;;8.30;99.90;;;;;;5093286;28;20478;-47
2022/10/23 06:12:01;;;;;;;6.37;4.10;;;8.60;99.90;;;;;;5093662;28;21001;-51
2022/10/23 06:14:28;;;;;;;8.37;7.77;;;8.90;99.90;;;;;;5093634;28;20959;-47
2022/10/23 06:16:55;;;;;;;10.23;9.23;;;9.10;99.90;;;;;;5093968;28;20439;-50
2022/10/23 06:19:22;;;;;;;5.97;5.47;;;9.00;99.90;;;;;;5093688;28;20455;-48
2022/10/23 06:21:50;;;;;;;7.80;5.40;;;8.00;99.90;;;;;;5093168;28;20534;-49
2022/10/23 06:24:17;;;;;;;5.27;4.77;;;8.30;99.90;;;;;;5093019;28;21056;-47
2022/10/23 06:26:45;;;;;;;3.60;3.07;;;8.70;99.90;;;;;;5093314;28;20531;-48
2022/10/23 06:29:11;;;;;;;3.00;1.70;;;8.80;99.90;;;;;;5093024;28;20522;-47
2022/10/23 06:31:38;;;;;;;1.83;1.17;;;9.10;99.90;;;;;;5093258;28;20442;-48
2022/10/23 06:34:05;;;;;;;1.20;1.10;;;8.70;99.90;;;;;;5092861;28;20872;-48
2022/10/23 06:36:32;;;;;;;2.60;2.40;;;8.80;99.90;;;;;;5093022;28;20566;-48
2022/10/23 06:39:01;;;;;;;4.40;3.90;;;9.00;99.90;;;;;;5092867;28;20446;-48
2022/10/23 06:41:27;;;;;;;5.90;5.30;;;9.10;99.90;;;;;;5093000;28;20530;-48
2022/10/23 06:43:54;;;;;;;7.57;6.87;;;9.00;99.90;;;;;;5092431;28;20522;-48
2022/10/23 06:46:21;;;;;;;5.30;4.80;;;9.10;99.90;;;;;;5093156;28;20451;-51
2022/10/23 06:48:48;;;;;;;6.53;5.60;;;9.10;99.90;;;;;;5092926;28;20436;-47
2022/10/23 06:51:17;;;;;;;19.37;17.37;;;8.90;99.90;;;;;;5092651;28;20558;-48
2022/10/23 06:53:44;;;;;;;18.13;16.33;;;9.20;99.90;;;;;;5092670;28;20821;-50
2022/10/23 06:56:13;;;;;;;6.60;6.00;;;8.60;99.90;;;;;;5092375;28;20476;-51
2022/10/23 06:58:40;;;;;;;9.20;8.30;;;8.60;99.90;;;;;;5092651;28;20538;-51
2022/10/23 07:01:11;;;;;;;12.37;11.07;;;8.90;99.90;;;;;;5092199;28;20543;-49
2022/10/23 07:03:38;;;;;;;10.33;8.83;;;9.20;99.90;;;;;;5092383;28;20471;-49
2022/10/23 07:06:07;;;;;;;11.17;7.87;;;8.60;99.90;;;;;;5092573;28;20526;-50
2022/10/23 07:08:34;;;;;;;9.03;7.00;;;8.70;99.90;;;;;;5092189;28;20440;-49
2022/10/23 07:11:03;;;;;;;5.60;5.10;;;8.90;99.90;;;;;;5092225;28;20470;-50
2022/10/23 07:13:33;;;;;;;9.00;6.60;;;9.10;99.90;;;;;;5091888;28;20971;-49
2022/10/23 07:16:08;;;;;;;7.53;4.90;;;9.30;99.90;;;;;;5092339;28;20571;-49
2022/10/23 07:18:34;;;;;;;5.07;3.63;;;9.20;99.90;;;;;;5092017;28;20530;-49
2022/10/23 07:21:01;;;;;;;3.70;2.87;;;8.70;99.90;;;;;;5092246;28;20467;-50
2022/10/23 07:23:28;;;;;;;4.70;2.53;;;8.90;99.90;;;;;;5092210;28;20529;-49
2022/10/23 07:25:55;;;;;;;5.00;2.47;;;9.20;99.90;;;;;;5092164;28;20463;-52
2022/10/23 07:28:22;;;;;;;6.70;4.90;;;9.30;99.90;;;;;;5091979;28;20952;-49
2022/10/23 07:30:57;;;;;;;7.83;6.70;;;9.60;99.90;;;;;;5091657;28;20460;-49
2022/10/23 07:33:24;;;;;;;7.77;5.73;;;9.60;99.90;;;;;;5091594;28;20439;-49
2022/10/23 07:35:51;;;;;;;12.20;5.17;;;9.60;99.90;;;;;;5092271;28;20566;-49
2022/10/23 07:38:18;;;;;;;6.63;6.00;;;9.60;99.90;;;;;;5091949;28;20535;-49
2022/10/23 07:40:45;;;;;;;5.90;5.30;;;9.60;99.90;;;;;;5073992;28;20467;-49
2022/10/23 07:43:11;;;;;;;7.87;6.63;;;9.60;99.90;;;;;;5091850;28;20519;-49
2022/10/23 07:45:38;;;;;;;11.40;4.80;;;9.10;99.90;;;;;;5091706;28;20885;-49
2022/10/23 07:48:07;;;;;;;7.03;6.17;;;8.80;99.90;;;;;;5091434;28;21011;-49
2022/10/23 07:50:33;;;;;;;7.50;6.80;;;9.20;99.90;;;;;;5093037;28;20542;-49
2022/10/23 07:53:00;;;;;;;12.43;9.77;;;9.10;99.90;;;;;;5091736;28;20436;-49
2022/10/23 07:55:27;;;;;;;9.13;6.73;;;8.80;99.90;;;;;;5091849;28;21018;-52
2022/10/23 07:57:54;;;;;;;7.53;5.87;;;8.80;99.90;;;;;;5091658;28;20447;-47
2022/10/23 08:00:21;;;;;;;3.97;3.30;;;8.80;99.90;;;;;;5091329;28;21039;-47
2022/10/23 08:02:48;;;;;;;4.00;2.13;;;8.90;99.90;;;;;;5091451;28;20483;-47
2022/10/23 08:05:18;;;;;;;4.50;2.83;;;9.20;99.90;;;;;;5091399;28;20522;-47
2022/10/23 08:07:45;;;;;;;6.87;5.10;;;9.60;99.90;;;;;;5091396;28;20446;-47
2022/10/23 08:10:12;;;;;;;9.90;8.67;;;9.70;99.90;;;;;;5091594;28;20533;-48
2022/10/23 08:12:39;;;;;;;9.43;8.40;;;9.70;99.90;;;;;;5091211;28;20973;-49
2022/10/23 08:15:07;;;;;;;7.03;6.30;;;9.90;99.90;;;;;;5090869;28;20475;-47
2022/10/23 08:17:34;;;;;;;7.97;7.23;;;9.80;99.90;;;;;;5091354;28;20524;-47
2022/10/23 08:20:01;;;;;;;9.87;8.97;;;10.00;99.90;;;;;;5091397;28;20867;-48
2022/10/23 08:22:29;;;;;;;5.83;4.07;;;9.80;99.90;;;;;;5091648;28;20527;-47
2022/10/23 08:24:55;;;;;;;3.93;3.63;;;9.50;99.90;;;;;;5091384;28;20439;-47
2022/10/23 08:27:22;;;;;;;3.40;3.10;;;9.50;99.90;;;;;;5091418;28;20527;-47
2022/10/23 08:29:49;;;;;;;4.30;3.70;;;9.80;99.90;;;;;;5090783;28;20555;-47
2022/10/23 08:32:16;;;;;;;6.70;6.20;;;9.90;99.90;;;;;;5091259;28;20531;-47
2022/10/23 08:34:43;;;;;;;4.97;4.47;;;10.20;99.90;;;;;;5091034;28;20550;-47
2022/10/23 08:37:10;;;;;;;2.90;2.60;;;10.40;99.90;;;;;;5091208;28;20505;-47
2022/10/23 08:39:38;;;;;;;4.37;3.60;;;10.00;99.90;;;;;;5090930;28;20470;-47
2022/10/23 08:42:05;;;;;;;5.27;3.23;;;10.00;99.90;;;;;;5091243;28;20440;-47
2022/10/23 08:44:36;;;;;;;4.70;3.77;;;10.20;99.90;;;;;;5091073;28;20810;-46
2022/10/23 08:47:08;;;;;;;3.33;2.60;;;10.40;99.90;;;;;;5091240;28;20536;-47
2022/10/23 08:49:43;;;;;;;2.10;1.70;;;10.30;99.90;;;;;;5091059;28;20562;-47
2022/10/23 08:52:17;;;;;;;1.67;1.40;;;10.30;99.90;;;;;;5091097;28;20477;-47
2022/10/23 08:55:02;;;;;;;2.63;0.97;;;10.50;99.90;;;;;;5090852;28;20441;-47
2022/10/23 08:57:33;;;;;;;2.00;1.80;;;10.80;99.90;;;;;;5091054;28;20444;-47
2022/10/23 09:00:03;;;;;;;2.00;1.60;;;11.00;99.90;;;;;;5091197;28;20550;-47
2022/10/23 09:02:35;;;;;;;5.63;2.00;;;11.10;99.90;;;;;;5090849;28;20463;-47
2022/10/23 09:05:02;;;;;;;2.43;2.23;;;11.10;99.90;;;;;;5093234;28;20538;-50
2022/10/23 09:07:39;;;;;;;2.27;1.80;;;10.80;99.90;;;;;;5090893;28;21004;-47
2022/10/23 09:10:31;;;;;;;2.37;1.93;;;10.70;99.90;;;;;;5091371;28;20461;-49
2022/10/23 09:13:02;;;;;;;2.13;1.33;;;10.80;99.90;;;;;;5090731;28;20862;-49
2022/10/23 09:15:35;;;;;;;6.47;1.73;;;10.80;99.90;;;;;;5090683;28;20633;-50
2022/10/23 09:18:11;;;;;;;2.97;2.00;;;11.10;99.90;;;;;;5091063;28;20523;-49
2022/10/23 09:20:39;;;;;;;1.97;1.70;;;11.30;99.90;;;;;;5091073;28;20546;-49
2022/10/23 09:23:14;;;;;;;2.47;1.63;;;11.40;99.90;;;;;;5086338;28;20530;-52
2022/10/23 09:25:43;;;;;;;1.70;1.30;;;11.50;99.90;;;;;;5072272;28;20535;-49
2022/10/23 09:28:19;;;;;;;1.83;1.40;;;11.60;99.90;;;;;;5073814;28;20442;-49
2022/10/23 09:30:46;;;;;;;2.33;1.20;;;11.70;99.90;;;;;;5072244;28;20462;-49
2022/10/23 09:33:15;;;;;;;4.83;1.43;;;11.90;99.90;;;;;;5072127;28;20805;-50
2022/10/23 09:35:53;;;;;;;3.67;1.40;;;12.00;99.90;;;;;;5071953;28;20481;-50
2022/10/23 09:38:31;;;;;;;2.27;1.30;;;12.10;99.90;;;;;;5072094;28;20999;-52
2022/10/23 09:41:02;;;;;;;1.80;1.60;;;12.10;99.90;;;;;;5072415;28;20544;-50
2022/10/23 09:43:29;;;;;;;2.90;1.10;;;12.20;99.90;;;;;;5071455;28;20546;-49
2022/10/23 09:45:58;;;;;;;1.60;0.90;;;12.20;99.90;;;;;;5073807;28;20442;-48
2022/10/23 09:48:26;;;;;;;3.20;1.20;;;12.30;99.90;;;;;;5072943;28;20468;-49
2022/10/23 09:50:54;;;;;;;2.93;1.20;;;12.40;99.90;;;;;;5071921;28;20728;-49
2022/10/23 09:53:29;;;;;;;1.47;1.13;;;12.50;99.90;;;;;;5071958;28;20437;-49
2022/10/23 09:55:58;;;;;;;1.43;0.90;;;12.50;99.90;;;;;;5072435;28;20564;-49
2022/10/23 09:58:34;;;;;;;1.87;0.80;;;12.60;99.90;;;;;;5072657;28;20449;-50
2022/10/23 10:01:01;;;;;;;2.50;1.50;;;12.70;99.90;;;;;;5072530;28;20919;-49
2022/10/23 10:03:28;;;;;;;3.90;2.00;;;12.70;99.90;;;;;;5071271;28;20457;-49
2022/10/23 10:05:58;;;;;;;14.70;4.40;;;12.70;99.90;;;;;;5072427;28;20446;-48
2022/10/23 10:08:32;;;;;;;2.20;1.53;;;12.80;99.90;;;;;;5072306;28;20530;-48
2022/10/23 10:11:02;;;;;;;1.87;0.90;;;12.90;99.90;;;;;;5072858;28;20471;-49
2022/10/23 10:13:52;;;;;;;1.40;0.77;;;13.10;99.90;;;;;;5073170;28;20469;-48
2022/10/23 10:16:30;;;;;;;1.80;0.80;;;13.10;99.90;;;;;;5073063;28;20489;-49
2022/10/23 10:19:04;;;;;;;1.80;1.00;;;13.20;99.90;;;;;;5073048;28;20439;-49
2022/10/23 10:21:36;;;;;;;1.60;1.30;;;13.30;99.90;;;;;;5071933;28;20446;-50
2022/10/23 10:24:08;;;;;;;2.20;1.57;;;13.30;99.90;;;;;;5071557;28;20810;-48
2022/10/23 10:26:44;;;;;;;1.67;1.20;;;13.40;99.90;;;;;;5073274;28;20440;-49
2022/10/23 10:29:23;;;;;;;3.97;1.20;;;13.40;99.90;;;;;;5072659;28;20447;-48
2022/10/23 10:32:04;;;;;;;1.60;1.13;;;13.30;99.90;;;;;;5073147;28;20542;-49
2022/10/23 10:34:41;;;;;;;1.30;1.00;;;13.30;99.90;;;;;;5071301;28;20975;-49
2022/10/23 10:37:19;;;;;;;2.23;0.93;;;13.30;99.90;;;;;;5070789;28;20480;-50
2022/10/23 10:39:55;;;;;;;1.40;1.10;;;13.20;99.90;;;;;;5071339;28;20467;-49
2022/10/23 10:42:36;;;;;;;2.43;1.17;;;13.30;99.90;;;;;;5071363;28;20517;-50
2022/10/23 10:45:17;;;;;;;1.40;0.83;;;13.40;99.90;;;;;;5071045;28;20526;-48
2022/10/23 10:47:55;;;;;;;1.73;1.13;;;13.50;99.90;;;;;;5071092;28;20440;-49
2022/10/23 10:50:29;;;;;;;3.20;1.53;;;13.40;99.90;;;;;;5072476;28;20481;-49
2022/10/23 10:53:03;;;;;;;2.00;1.40;;;13.50;99.90;;;;;;5072436;28;20534;-49
2022/10/23 10:55:35;;;;;;;3.17;1.50;;;13.50;99.90;;;;;;5072613;28;20444;-49
2022/10/23 10:58:08;;;;;;;1.90;1.20;;;13.60;99.90;;;;;;5072558;28;20582;-49
2022/10/23 11:00:37;;;;;;;3.13;1.33;;;13.60;99.90;;;;;;5072416;28;20470;-51
2022/10/23 11:03:18;;;;;;;1.47;1.37;;;13.70;99.90;;;;;;5072257;28;20445;-49
2022/10/23 11:05:49;;;;;;;2.43;1.60;;;13.80;99.90;;;;;;5072433;28;20541;-49
2022/10/23 11:08:21;;;;;;;1.93;1.33;;;13.90;99.90;;;;;;5072009;28;20865;-49
2022/10/23 11:10:53;;;;;;;3.60;1.50;;;13.90;99.90;;;;;;5072247;28;20511;-49
2022/10/23 11:13:26;;;;;;;2.50;1.40;;;14.00;99.90;;;;;;5072113;28;20460;-49
2022/10/23 11:15:58;;;;;;;3.90;2.20;;;14.20;99.90;;;;;;5072267;28;20538;-49
2022/10/23 11:18:27;;;;;;;2.37;1.50;;;14.10;99.90;;;;;;5072472;28;20445;-49
2022/10/23 11:21:07;;;;;;;2.20;1.70;;;14.00;99.90;;;;;;5072033;28;20579;-50
2022/10/23 11:24:11;;;;;;;2.13;1.13;;;14.10;99.90;;;;;;5071751;28;20504;-49
2022/10/23 11:26:46;;;;;;;3.43;1.20;;;14.20;99.90;;;;;;5071844;28;20439;-49
2022/10/23 11:29:35;;;;;;;1.20;0.83;;;14.20;99.90;;;;;;5071306;28;20991;-49
2022/10/23 11:32:21;;;;;;;1.83;1.20;;;14.30;99.90;;;;;;5071997;28;20441;-49
2022/10/23 11:35:04;;;;;;;2.90;1.60;;;14.40;99.90;;;;;;5071554;28;20443;-49
2022/10/23 11:37:32;;;;;;;1.33;0.90;;;14.50;99.90;;;;;;5071545;28;20555;-49
2022/10/23 11:40:02;;;;;;;1.87;1.30;;;14.50;99.90;;;;;;5071706;28;20555;-49
2022/10/23 11:42:34;;;;;;;1.60;1.40;;;14.60;99.90;;;;;;5071847;28;20458;-49
2022/10/23 11:45:01;;;;;;;1.90;1.30;;;14.60;99.90;;;;;;5071482;28;20528;-49
2022/10/23 11:47:34;;;;;;;1.57;1.20;;;14.70;99.90;;;;;;5071789;28;20444;-49
2022/10/23 11:50:25;;;;;;;1.90;1.20;;;14.70;99.90;;;;;;5071846;28;20559;-49
2022/10/23 11:52:58;;;;;;;1.73;1.40;;;14.80;99.90;;;;;;5071778;28;20437;-46
2022/10/23 11:55:26;;;;;;;2.80;1.57;;;14.90;99.90;;;;;;5071522;28;20527;-49
2022/10/23 11:58:15;;;;;;;3.33;2.10;;;14.90;99.90;;;;;;5071568;28;20563;-49
2022/10/23 12:00:54;;;;;;;2.23;1.30;;;15.00;99.90;;;;;;5071405;28;20895;-49
2022/10/23 12:03:28;;;;;;;2.70;1.67;;;15.00;99.90;;;;;;5071119;28;20524;-49
2022/10/23 12:06:02;;;;;;;3.00;1.57;;;15.20;99.90;;;;;;5071463;28;20525;-49
2022/10/23 12:08:32;;;;;;;2.27;1.50;;;15.20;99.90;;;;;;5071299;28;20444;-49
2022/10/23 12:10:59;;;;;;;1.93;1.50;;;15.20;99.90;;;;;;5071260;28;20547;-49
2022/10/23 12:13:48;;;;;;;2.80;1.67;;;15.20;99.90;;;;;;5070852;28;20440;-52
2022/10/23 12:16:15;;;;;;;1.80;1.30;;;15.20;99.90;;;;;;5070981;28;20531;-50
2022/10/23 12:18:49;;;;;;;3.07;1.70;;;15.20;99.90;;;;;;5071117;28;20899;-49
2022/10/23 12:21:19;;;;;;;1.70;1.30;;;15.30;99.90;;;;;;5070939;28;20465;-49
2022/10/23 12:24:07;;;;;;;2.20;1.77;;;15.40;99.90;;;;;;5071104;28;20520;-51
2022/10/23 12:27:04;;;;;;;3.50;2.07;;;15.40;99.90;;;;;;5071288;28;20451;-49
2022/10/23 12:29:51;;;;;;;4.30;1.43;;;15.40;99.90;;;;;;5070742;28;20541;-49
2022/10/23 12:32:33;;;;;;;2.67;1.53;;;15.60;99.90;;;;;;5071074;28;20523;-49
2022/10/23 12:35:19;;;;;;;2.07;1.90;;;15.60;99.90;;;;;;5071050;28;20449;-49
2022/10/23 12:38:01;;;;;;;2.00;1.60;;;15.50;99.90;;;;;;5070959;28;20480;-49
2022/10/23 12:40:29;;;;;;;3.40;1.97;;;15.60;99.90;;;;;;5070722;28;20891;-50
2022/10/23 12:42:58;;;;;;;2.50;1.73;;;15.60;99.90;;;;;;5070938;28;20445;-49
2022/10/23 12:45:27;;;;;;;3.10;1.83;;;15.80;99.90;;;;;;5071027;28;20440;-49
2022/10/23 12:47:54;;;;;;;2.20;1.33;;;15.80;99.90;;;;;;5070756;28;20565;-51
2022/10/23 12:50:25;;;;;;;3.37;1.53;;;15.70;99.90;;;;;;5071128;28;20563;-49
2022/10/23 12:52:53;;;;;;;4.30;1.53;;;15.60;99.90;;;;;;5071014;28;20524;-49
2022/10/23 12:55:21;;;;;;;2.23;2.00;;;15.60;99.90;;;;;;5070740;28;20447;-49
2022/10/23 12:57:48;;;;;;;4.10;1.60;;;16.10;99.90;;;;;;5070660;28;20484;-49
2022/10/23 13:00:16;;;;;;;1.70;1.33;;;16.20;99.90;;;;;;5072308;28;20541;-52
2022/10/23 13:02:43;;;;;;;1.73;1.20;;;16.20;99.90;;;;;;5074575;28;20445;-50
2022/10/23 13:05:16;;;;;;;2.03;1.60;;;16.20;99.90;;;;;;5074490;28;20537;-50
2022/10/23 13:07:46;;;;;;;2.33;1.63;;;16.20;99.90;;;;;;5074344;28;20436;-49
2022/10/23 13:10:16;;;;;;;1.90;1.33;;;16.40;99.90;;;;;;5074714;28;20906;-50